• Join FlightAware (Why Join?)
  • Login
  • US Flag 
03:44PM EDT


 

Airport Tracker/Info


-or-


 

Live Flight TrackerFlight Track Log ✈ UAL1129 ✈ 14-Jul-2013 ✈ KDEN - KPHX

Flight Track Log - Related Links

Times and Time Zones

All times are in EDT time to prevent confusion due to time zone crossing. See the UAL1129 flight status page for this flight to view local times or setup timezone preferences in your user account.

Time Position Orientation Groundspeed Altitude Reporting Facility
EDT Latitude Longitude Course Direction KTS MPH feet Rate Location/Type
10:10PM 39.9167 -104.7000 255° West 201 231 6,500  Level Denver TRACON
10:11PM 39.9667 -104.7333 333° Northwest 256 295 8,300 2,160 Climbing Denver TRACON
10:12PM 40.0000 -104.8000 303° West 286 329 10,700 2,340 Climbing Denver TRACON
10:13PM 39.7061 -105.1318 247° West  Level FlightAware Approximate
10:14PM 39.6593 -105.2870 245° Southwest  Level FlightAware Approximate
10:14PM 39.9578 -104.9308 247° West 308 354 13,600  Level Denver Center
10:15PM 39.6044 -105.4379 245° Southwest  Level FlightAware Approximate
10:16PM 39.5558 -105.5875 255° West  Level FlightAware Approximate
10:16PM 39.8419 -105.1297 233° Southwest 342 394 17,800  Level Denver Center
10:17PM 39.7761 -105.2247 228° Southwest 351 404 20,000 2,040 Climbing Denver Center
10:18PM 39.7142 -105.3356 234° Southwest 351 404 22,100 1,500 Climbing Denver Center
10:19PM 39.6536 -105.4414 233° Southwest 364 419 23,100 1,020 Climbing Denver Center
10:20PM 39.6014 -105.5319 233° Southwest 364 419 24,300 1,320 Climbing Denver Center
10:21PM 39.5361 -105.6703 239° Southwest 378 435 25,900 960 Climbing Denver Center
10:22PM 39.4997 -105.8064 251° West 402 463 26,300 480 Climbing Denver Center
10:23PM 39.4617 -105.9519 251° West 428 493 26,900 780 Climbing Denver Center
10:24PM 39.4192 -106.1008 250° West 443 510 28,000 1,020 Climbing Denver Center
10:25PM 39.3722 -106.2689 250° West 449 517 29,100 900 Climbing Denver Center
10:26PM 39.3292 -106.4164 249° West 456 525 30,100 1,140 Climbing Denver Center
10:27PM 39.2717 -106.6128 249° West 457 526 31,800 1,320 Climbing Denver Center
10:28PM 39.2089 -106.7722 243° Southwest 449 517 32,900 960 Climbing Denver Center
10:29PM 39.1322 -106.8942 231° Southwest 456 525 33,800 1,080 Climbing Denver Center
10:30PM 39.0439 -107.0339 231° Southwest 451 519 35,200 1,020 Climbing Denver Center
10:31PM 38.9694 -107.1489 230° Southwest 442 509 36,000 360 Climbing Denver Center
10:32PM 38.8669 -107.2128 206° Southwest 429 494 36,000  Level Denver Center
10:33PM 38.7433 -107.2761 202° Southwest 428 493 36,000  Level Denver Center
10:34PM 38.6350 -107.3311 202° Southwest 433 498 36,000  Level Denver Center
10:36PM 38.5092 -107.3967 202° Southwest 435 501 36,000  Level Denver Center
10:37PM 38.4003 -107.4511 201° Southwest 439 505 36,000  Level Denver Center
10:38PM 38.2733 -107.5142 201° Southwest 437 503 36,000  Level Denver Center
10:39PM 38.1656 -107.5686 202° Southwest 436 502 36,000  Level Denver Center
10:40PM 38.0556 -107.6239 202° Southwest 436 502 36,000  Level Denver Center
10:41PM 37.9286 -107.6864 201° Southwest 437 503 36,000  Level Denver Center
10:42PM 37.8206 -107.7417 202° Southwest 437 503 36,000  Level Denver Center
10:43PM 37.6933 -107.8039 201° Southwest 439 505 36,000  Level Denver Center
10:44PM 37.5839 -107.8594 202° Southwest 442 509 36,000  Level Denver Center
10:45PM 37.4553 -107.9225 201° Southwest 441 507 36,000  Level Denver Center
10:46PM 37.3447 -107.9756 201° Southwest 444 511 36,000  Level Denver Center
10:47PM 37.2147 -108.0394 201° Southwest 450 518 36,000  Level Denver Center
10:48PM 37.1042 -108.0939 201° Southwest 444 511 36,000  Level Denver Center
10:49PM 36.9761 -108.1561 201° Southwest 442 509 36,000  Level Denver Center
10:50PM 36.8656 -108.2097 201° Southwest 443 510 36,000  Level Denver Center
10:51PM 36.7564 -108.2625 201° Southwest 439 505 36,000  Level Denver Center
10:52PM 36.6283 -108.3250 201° Southwest 441 507 36,000  Level Denver Center
10:53PM 36.5189 -108.3772 201° Southwest 440 506 36,000  Level Denver Center
10:54PM 36.4272 -108.4217 201° Southwest 442 509 36,000  Level Denver Center
10:55PM 36.2786 -108.4933 201° Southwest 446 513 36,000  Level Denver Center
10:56PM 36.1483 -108.5547 201° Southwest 445 512 36,000  Level Denver Center
10:57PM 36.0119 -108.6219 202° Southwest 449 517 36,000  Level Albuquerque Center
10:58PM 35.9058 -108.6706 200° South 447 514 36,000  Level Albuquerque Center
10:59PM 35.7772 -108.7311 201° Southwest 440 506 36,000  Level Albuquerque Center
11:00PM 35.6683 -108.7839 201° Southwest 437 503 36,000  Level Albuquerque Center
11:01PM 35.5586 -108.8344 201° Southwest 438 504 36,000  Level Albuquerque Center
11:02PM 35.4347 -108.9017 204° Southwest 435 501 36,000  Level Albuquerque Center
11:03PM 35.3250 -108.9533 201° Southwest 437 503 36,000  Level Albuquerque Center
11:04PM 35.2153 -109.0044 201° Southwest 440 506 36,000  Level Albuquerque Center
11:06PM 35.0842 -109.0647 201° Southwest 446 513 36,000  Level Albuquerque Center
11:07PM 34.9764 -109.1297 206° Southwest 454 522 36,000  Level Albuquerque Center
11:08PM 34.8614 -109.2250 214° Southwest 448 516 36,000  Level Albuquerque Center
11:09PM 34.7778 -109.3267 225° Southwest 443 510 36,000  Level Albuquerque Center
11:10PM 34.6972 -109.4361 228° Southwest 448 516 36,000  Level Albuquerque Center
11:11PM 34.6153 -109.5736 234° Southwest 447 514 36,000  Level Albuquerque Center
11:12PM 34.5736 -109.7119 250° West 451 519 36,000  Level Albuquerque Center
11:13PM 34.5264 -109.8747 251° West 456 525 36,000  Level Albuquerque Center
11:14PM 34.4819 -110.0136 249° West 460 529 36,000 -720 Level Albuquerque Center
11:15PM 34.4369 -110.1536 249° West 463 533 34,600 -2,520 Descending Albuquerque Center
11:16PM 34.3833 -110.3219 249° West 476 548 30,900 -3,000 Descending Albuquerque Center
11:17PM 34.3394 -110.4583 249° West 478 550 28,500 -2,400 Descending Albuquerque Center
11:18PM 34.2922 -110.6022 248° West 465 535 26,100 -2,340 Descending Albuquerque Center
11:19PM 34.2472 -110.7408 249° West 449 517 23,800 -2,040 Descending Albuquerque Center
11:21PM 34.1814 -111.0378 255° West 406 467 19,900 -1,680 Descending Albuquerque Center
11:22PM 34.1756 -111.1564 267° West 363 418 18,800 -1,440 Descending Albuquerque Center
11:23PM 34.1700 -111.2678 267° West 341 392 17,000 -1,860 Descending Albuquerque Center
11:24PM 34.1631 -111.3772 266° West 331 381 15,100 -1,680 Descending Albuquerque Center
11:25PM 34.0889 -111.4322 212° Southwest 315 362 13,600 -1,560 Descending Albuquerque Center
11:26PM 34.0053 -111.4661 199° South 313 360 12,000 -1,260 Descending Albuquerque Center
11:27PM 33.9269 -111.5050 202° Southwest 305 351 11,100 -1,020 Descending Albuquerque Center
11:28PM 33.8567 -111.5617 214° Southwest 302 348 10,000 -600 Descending Albuquerque Center
11:29PM 33.7828 -111.6083 208° Southwest 298 343 9,900 -720 Descending Albuquerque Center
11:30PM 33.7064 -111.6439 201° Southwest 292 336 8,600 -1,020 Descending Albuquerque Center
11:31PM 33.6325 -111.6786 201° Southwest 285 328 7,900 -1,080 Descending Albuquerque Center
11:32PM 33.5694 -111.7081 201° Southwest 247 284 6,500 -1,320 Descending Albuquerque Center
11:33PM 33.4956 -111.7447 202° Southwest 236 272 5,200 -1,320 Descending Albuquerque Center
11:34PM 33.4647 -111.8033 238° Southwest 205 236 3,900 -1,140 Descending Albuquerque Center
11:35PM 33.4422 -111.8586 244° Southwest 184 212 3,000 -840 Descending Albuquerque Center
11:36PM 33.4333 -111.9000 256° West 160 184 2,500 -780 Descending Phoenix TRACON
11:37PM 33.4333 -111.9500 270° West 154 177 1,700 -840 Descending Phoenix TRACON